Time;durP1;ratioP1;P1;durP2;ratioP2;P2;SDS_P1;SDS_P2;PMS_P1;PMS_P2;Temp;Humidity;BMP_temperature;BMP_pressure;BME280_temperature;BME280_humidity;BME280_pressure;Samples;Min_cycle;Max_cycle;Signal;HPM_P1;HPM_P2
2021/06/17 00:01:30;;;;;;;5.63;5.22;;;24.40;57.10;;;;;;5091762;28;20652;-59
2021/06/17 00:03:55;;;;;;;4.68;4.32;;;24.40;57.10;;;;;;5091841;28;20180;-59
2021/06/17 00:06:21;;;;;;;5.05;4.68;;;24.40;57.10;;;;;;5091232;28;20233;-59
2021/06/17 00:08:46;;;;;;;4.72;4.43;;;24.40;57.10;;;;;;5091552;28;20258;-59
2021/06/17 00:11:12;;;;;;;5.05;4.63;;;24.40;57.10;;;;;;5091850;28;20281;-59
2021/06/17 00:13:37;;;;;;;4.47;4.18;;;24.40;57.10;;;;;;5091200;28;20178;-59
2021/06/17 00:16:04;;;;;;;4.93;4.53;;;24.40;57.10;;;;;;5091736;28;20193;-59
2021/06/17 00:18:30;;;;;;;5.13;4.72;;;24.40;57.10;;;;;;5091188;28;20190;-58
2021/06/17 00:20:55;;;;;;;5.07;4.68;;;24.40;57.10;;;;;;5091046;28;20227;-60
2021/06/17 00:23:21;;;;;;;5.28;4.88;;;24.40;57.10;;;;;;5091806;28;20181;-59
2021/06/17 00:25:47;;;;;;;4.75;4.45;;;24.40;57.10;;;;;;5090495;28;20213;-59
2021/06/17 00:28:12;;;;;;;5.00;4.63;;;24.40;57.10;;;;;;5091625;28;20264;-59
2021/06/17 00:30:38;;;;;;;5.05;4.72;;;24.40;57.20;;;;;;5091232;28;20315;-59
2021/06/17 00:33:04;;;;;;;5.10;4.75;;;24.40;57.10;;;;;;5090927;28;20178;-59
2021/06/17 00:35:30;;;;;;;5.78;5.28;;;24.40;57.10;;;;;;5091163;28;20223;-59
2021/06/17 00:37:56;;;;;;;4.65;4.35;;;24.30;57.10;;;;;;5091923;28;20205;-60
2021/06/17 00:40:22;;;;;;;4.50;4.20;;;24.40;57.10;;;;;;5091236;28;20174;-60
2021/06/17 00:42:49;;;;;;;4.93;4.55;;;24.40;57.10;;;;;;5091444;28;20197;-59
2021/06/17 00:45:25;;;;;;;4.78;4.47;;;24.40;57.10;;;;;;5091665;28;20210;-59
2021/06/17 00:47:51;;;;;;;5.38;4.97;;;24.30;57.00;;;;;;5090911;28;20208;-59
2021/06/17 00:50:16;;;;;;;5.10;4.70;;;24.30;57.00;;;;;;5091482;28;20200;-58
2021/06/17 00:52:44;;;;;;;5.00;4.68;;;24.30;57.00;;;;;;5091331;28;20529;-59
2021/06/17 00:55:10;;;;;;;5.00;4.63;;;24.30;57.10;;;;;;5073282;28;20182;-59
2021/06/17 00:57:35;;;;;;;4.95;4.65;;;24.30;57.10;;;;;;5091128;28;20620;-59
2021/06/17 01:00:01;;;;;;;4.40;4.10;;;24.30;57.00;;;;;;5091394;28;20200;-59
2021/06/17 01:02:26;;;;;;;5.20;4.88;;;24.30;57.00;;;;;;5094814;28;20173;-59
2021/06/17 01:04:52;;;;;;;4.90;4.50;;;24.30;57.10;;;;;;5095142;28;20185;-59
2021/06/17 01:07:29;;;;;;;4.53;4.22;;;24.30;57.00;;;;;;5095167;28;20205;-59
2021/06/17 01:10:17;;;;;;;4.85;4.55;;;24.30;57.10;;;;;;5076380;28;20700;-60
2021/06/17 01:13:05;;;;;;;4.80;4.50;;;24.30;57.00;;;;;;5094871;28;20231;-59
2021/06/17 01:15:31;;;;;;;4.78;4.47;;;24.30;57.00;;;;;;5076256;28;20196;-59
2021/06/17 01:18:14;;;;;;;4.97;4.68;;;24.30;57.00;;;;;;5077194;28;20511;-59
2021/06/17 01:20:51;;;;;;;5.40;5.03;;;24.30;57.10;;;;;;5076530;28;20226;-59
2021/06/17 01:23:55;;;;;;;4.95;4.55;;;24.30;57.20;;;;;;5076248;28;20177;-59
2021/06/17 01:26:52;;;;;;;5.20;4.80;;;24.30;57.10;;;;;;5077193;28;20239;-58
2021/06/17 01:29:20;;;;;;;5.00;4.68;;;24.30;57.10;;;;;;5094113;28;20390;-58
2021/06/17 01:31:46;;;;;;;5.35;4.95;;;24.30;57.00;;;;;;5076734;28;20178;-59
2021/06/17 01:34:11;;;;;;;5.10;4.70;;;24.30;57.20;;;;;;5076372;28;20192;-59
2021/06/17 01:36:40;;;;;;;5.57;5.10;;;24.30;57.00;;;;;;5075772;28;20178;-60
2021/06/17 01:39:08;;;;;;;5.13;4.78;;;24.30;57.10;;;;;;5094973;28;20169;-59
2021/06/17 01:41:36;;;;;;;5.80;4.90;;;24.30;57.20;;;;;;5075845;28;20182;-61
2021/06/17 01:44:03;;;;;;;5.38;4.97;;;24.30;57.20;;;;;;5076333;28;20180;-61
2021/06/17 01:46:29;;;;;;;5.07;4.63;;;24.30;57.10;;;;;;5076416;28;20220;-61
2021/06/17 01:48:54;;;;;;;5.38;4.97;;;24.30;57.20;;;;;;5076197;28;20498;-61
2021/06/17 01:51:22;;;;;;;5.05;4.75;;;24.30;57.20;;;;;;5076057;28;20199;-60
2021/06/17 01:53:48;;;;;;;5.07;4.78;;;24.30;57.00;;;;;;5094262;28;20576;-61
2021/06/17 01:56:15;;;;;;;4.97;4.57;;;24.20;57.00;;;;;;5094436;28;20636;-58
2021/06/17 01:58:40;;;;;;;5.28;4.82;;;24.20;57.10;;;;;;5093587;28;20182;-60
2021/06/17 02:01:06;;;;;;;5.45;5.05;;;24.30;57.20;;;;;;5076155;28;20235;-60
2021/06/17 02:03:31;;;;;;;5.20;4.80;;;24.30;57.20;;;;;;5075758;28;20493;-61
2021/06/17 02:05:57;;;;;;;5.07;4.78;;;24.30;57.20;;;;;;5075510;28;20212;-61
2021/06/17 02:08:22;;;;;;;5.63;5.22;;;24.30;57.20;;;;;;5076256;28;20177;-60
2021/06/17 02:10:48;;;;;;;4.88;4.57;;;24.30;57.10;;;;;;5075473;28;20174;-60
2021/06/17 02:13:15;;;;;;;5.53;5.22;;;24.20;57.00;;;;;;5075283;28;20340;-60
2021/06/17 02:15:42;;;;;;;5.47;5.07;;;24.20;57.10;;;;;;5093720;28;20181;-60
2021/06/17 02:18:08;;;;;;;5.47;5.05;;;24.20;57.00;;;;;;5093425;28;20688;-60
2021/06/17 02:20:34;;;;;;;5.53;5.13;;;24.20;57.00;;;;;;5075694;28;20182;-60
2021/06/17 02:23:03;;;;;;;5.00;4.70;;;24.20;57.00;;;;;;5076094;28;20654;-60
2021/06/17 02:25:28;;;;;;;5.65;5.15;;;24.20;57.10;;;;;;5092967;28;20859;-60
2021/06/17 02:27:58;;;;;;;5.32;4.93;;;24.20;57.10;;;;;;5075289;28;20272;-60
2021/06/17 02:30:23;;;;;;;5.25;4.95;;;24.20;57.10;;;;;;5075687;28;20229;-60
2021/06/17 02:32:49;;;;;;;5.10;4.65;;;24.20;57.10;;;;;;5074840;28;20522;-61
2021/06/17 02:35:20;;;;;;;5.68;5.28;;;24.20;57.10;;;;;;5075558;28;20604;-61
2021/06/17 02:37:46;;;;;;;5.60;5.20;;;24.20;57.00;;;;;;5074888;28;20181;-60
2021/06/17 02:40:12;;;;;;;5.70;5.30;;;24.20;57.20;;;;;;5074871;28;20261;-60
2021/06/17 02:42:37;;;;;;;5.60;5.20;;;24.20;57.10;;;;;;5075022;28;20210;-60
2021/06/17 02:45:03;;;;;;;5.15;4.75;;;24.20;57.10;;;;;;5075034;28;20256;-60
2021/06/17 02:47:28;;;;;;;6.05;5.55;;;24.20;57.20;;;;;;5093007;28;20284;-60
2021/06/17 02:49:54;;;;;;;5.43;5.03;;;24.20;57.10;;;;;;5075095;28;20173;-60
2021/06/17 02:52:19;;;;;;;5.38;4.97;;;24.20;57.10;;;;;;5093043;28;20174;-60
2021/06/17 02:54:45;;;;;;;5.45;5.05;;;24.20;57.10;;;;;;5092486;28;20567;-60
2021/06/17 02:57:21;;;;;;;5.43;5.10;;;24.20;57.10;;;;;;5093105;28;20579;-60
2021/06/17 03:00:07;;;;;;;5.70;5.30;;;24.20;57.20;;;;;;5092598;28;20184;-60
2021/06/17 03:02:52;;;;;;;5.68;5.28;;;24.20;57.10;;;;;;5092291;28;20506;-60
2021/06/17 03:05:20;;;;;;;6.00;5.50;;;24.20;57.10;;;;;;5074811;28;20173;-61
2021/06/17 03:07:58;;;;;;;5.80;5.40;;;24.20;57.10;;;;;;5073972;28;20259;-60
2021/06/17 03:10:24;;;;;;;5.93;5.45;;;24.20;57.20;;;;;;5075428;28;20185;-60
2021/06/17 03:12:49;;;;;;;5.50;5.10;;;24.20;57.10;;;;;;5074590;28;20177;-60
2021/06/17 03:15:15;;;;;;;5.63;5.22;;;24.10;57.00;;;;;;5074341;28;20255;-60
2021/06/17 03:17:43;;;;;;;5.53;5.18;;;24.10;57.00;;;;;;5074601;28;20177;-60
2021/06/17 03:20:09;;;;;;;6.10;5.40;;;24.20;57.20;;;;;;5074733;28;20178;-60
2021/06/17 03:22:35;;;;;;;5.32;4.93;;;24.20;57.10;;;;;;5091661;28;20184;-60
2021/06/17 03:25:07;;;;;;;5.70;5.30;;;24.10;57.10;;;;;;5092405;28;20541;-60
2021/06/17 03:27:33;;;;;;;5.70;5.30;;;24.20;57.10;;;;;;5092202;28;20213;-60
2021/06/17 03:29:58;;;;;;;5.95;5.45;;;24.10;57.00;;;;;;5092089;28;20321;-60
2021/06/17 03:32:26;;;;;;;5.40;5.00;;;24.20;57.10;;;;;;5074481;28;20269;-60
2021/06/17 03:34:51;;;;;;;5.82;5.43;;;24.20;57.10;;;;;;5092084;28;20182;-60
2021/06/17 03:37:18;;;;;;;5.90;5.50;;;24.20;57.10;;;;;;5074060;28;20166;-60
2021/06/17 03:39:44;;;;;;;5.65;5.25;;;24.20;57.10;;;;;;5092385;28;20185;-61
2021/06/17 03:42:11;;;;;;;5.50;5.10;;;24.20;57.10;;;;;;5074321;28;20181;-60
2021/06/17 03:44:37;;;;;;;5.45;5.05;;;24.20;57.10;;;;;;5073470;28;20586;-60
2021/06/17 03:47:02;;;;;;;5.60;5.20;;;24.20;57.10;;;;;;5074170;28;20205;-60
2021/06/17 03:49:28;;;;;;;5.50;5.10;;;24.20;57.10;;;;;;5073789;28;20238;-60
2021/06/17 03:51:56;;;;;;;5.60;5.20;;;24.20;57.10;;;;;;5073414;28;20178;-60
2021/06/17 03:54:24;;;;;;;5.50;5.13;;;24.20;57.00;;;;;;5074387;28;20201;-60
2021/06/17 03:56:54;;;;;;;6.13;5.65;;;24.20;57.00;;;;;;5073417;28;20635;-60
2021/06/17 03:59:25;;;;;;;5.80;5.30;;;24.20;57.00;;;;;;5073856;28;20524;-60
2021/06/17 04:01:51;;;;;;;5.57;5.18;;;24.20;57.00;;;;;;5091620;28;20181;-60
2021/06/17 04:04:16;;;;;;;5.95;5.47;;;24.20;57.00;;;;;;5073038;28;20481;-60
2021/06/17 04:06:42;;;;;;;6.25;5.85;;;24.10;57.00;;;;;;5091627;28;20701;-61
2021/06/17 04:09:07;;;;;;;6.05;5.55;;;24.20;56.90;;;;;;5073715;28;20217;-60
2021/06/17 04:11:33;;;;;;;5.75;5.35;;;24.20;56.90;;;;;;5072847;28;20223;-60
2021/06/17 04:13:58;;;;;;;5.90;5.50;;;24.20;56.90;;;;;;5073771;28;20166;-60
2021/06/17 04:16:25;;;;;;;6.20;5.70;;;24.20;56.90;;;;;;5073499;28;20181;-60
2021/06/17 04:18:52;;;;;;;5.78;5.28;;;24.20;56.90;;;;;;5073211;28;20185;-60
2021/06/17 04:21:18;;;;;;;5.65;5.25;;;24.20;56.90;;;;;;5091814;28;20231;-60
2021/06/17 04:23:46;;;;;;;5.78;5.38;;;24.20;56.90;;;;;;5073289;28;20178;-60
2021/06/17 04:26:11;;;;;;;5.53;5.13;;;24.20;56.90;;;;;;5091218;28;20756;-60
2021/06/17 04:28:37;;;;;;;6.03;5.60;;;24.20;56.80;;;;;;5073275;28;20316;-61
2021/06/17 04:31:03;;;;;;;5.95;5.47;;;24.20;56.80;;;;;;5073313;28;20188;-60
2021/06/17 04:33:28;;;;;;;6.32;5.85;;;24.20;56.80;;;;;;5073328;28;20165;-60
2021/06/17 04:35:56;;;;;;;5.82;5.32;;;24.20;56.80;;;;;;5076827;28;20169;-61
2021/06/17 04:38:22;;;;;;;5.63;5.20;;;24.20;56.80;;;;;;5077724;28;20185;-61
2021/06/17 04:40:48;;;;;;;5.97;5.50;;;24.20;56.70;;;;;;5095017;28;20169;-61
2021/06/17 04:43:14;;;;;;;6.50;6.00;;;24.20;56.70;;;;;;5095795;28;20328;-60
2021/06/17 04:45:40;;;;;;;5.95;5.55;;;24.20;56.80;;;;;;5094942;28;20285;-60
2021/06/17 04:48:08;;;;;;;6.00;5.60;;;24.30;56.80;;;;;;5076890;28;20174;-60
2021/06/17 04:50:34;;;;;;;5.57;5.18;;;24.30;56.70;;;;;;5077504;28;20193;-60
2021/06/17 04:53:08;;;;;;;6.38;5.97;;;24.30;56.70;;;;;;5094827;28;20181;-60
2021/06/17 04:55:34;;;;;;;6.00;5.50;;;24.30;56.80;;;;;;5095198;28;20249;-60
2021/06/17 04:57:59;;;;;;;6.07;5.55;;;24.30;56.70;;;;;;5077027;28;20691;-60
2021/06/17 05:00:25;;;;;;;6.45;5.95;;;24.30;56.70;;;;;;5094928;28;20561;-60
2021/06/17 05:02:50;;;;;;;5.38;5.07;;;24.30;56.70;;;;;;5095389;28;20340;-60
2021/06/17 05:05:16;;;;;;;5.78;5.38;;;24.30;56.90;;;;;;5095353;28;20176;-61
2021/06/17 05:12:55;;;;;;;5.88;5.47;;;24.30;56.70;;;;;;5095326;28;20517;-59
2021/06/17 05:15:21;;;;;;;6.10;5.70;;;24.30;56.70;;;;;;5094952;28;20174;-59
2021/06/17 05:17:46;;;;;;;6.32;5.93;;;24.30;56.70;;;;;;5094723;28;20583;-59
2021/06/17 05:20:12;;;;;;;5.85;5.45;;;24.30;56.80;;;;;;5094614;28;20632;-59
2021/06/17 05:22:40;;;;;;;6.05;5.55;;;24.30;56.80;;;;;;5094131;28;20579;-59
2021/06/17 05:25:06;;;;;;;5.95;5.45;;;24.30;56.70;;;;;;5094803;28;20269;-60
2021/06/17 05:27:31;;;;;;;6.07;5.68;;;24.30;57.30;;;;;;5094281;28;20301;-60
2021/06/17 05:29:57;;;;;;;6.13;5.72;;;24.30;56.70;;;;;;5075981;28;20321;-60
2021/06/17 05:32:24;;;;;;;6.20;5.80;;;24.30;56.80;;;;;;5094886;28;20545;-60
2021/06/17 05:34:49;;;;;;;6.07;5.65;;;24.30;56.70;;;;;;5094311;28;20240;-60
2021/06/17 05:37:15;;;;;;;5.90;5.50;;;24.30;56.70;;;;;;5094092;28;20174;-60
2021/06/17 05:39:40;;;;;;;5.97;5.47;;;24.30;56.70;;;;;;5094283;28;20509;-60
2021/06/17 05:42:07;;;;;;;6.00;5.57;;;24.40;56.80;;;;;;5093830;28;20658;-60
2021/06/17 05:44:32;;;;;;;6.60;6.20;;;24.40;56.70;;;;;;5094439;28;20169;-60
2021/06/17 05:46:58;;;;;;;6.00;5.60;;;24.40;56.80;;;;;;5093960;28;20209;-60
2021/06/17 05:49:24;;;;;;;6.05;5.63;;;24.40;56.70;;;;;;5093866;28;20173;-59
2021/06/17 05:51:50;;;;;;;6.22;5.72;;;24.40;57.30;;;;;;5093992;28;20189;-60
2021/06/17 05:54:16;;;;;;;6.22;5.72;;;24.30;56.70;;;;;;5094190;28;20296;-60
2021/06/17 05:56:41;;;;;;;5.85;5.40;;;24.40;56.80;;;;;;5093448;28;20284;-60
2021/06/17 05:59:07;;;;;;;6.28;5.78;;;24.40;56.80;;;;;;5094296;28;20196;-60
2021/06/17 06:01:33;;;;;;;6.13;5.72;;;24.30;56.80;;;;;;5093888;28;20174;-60
2021/06/17 06:03:58;;;;;;;6.25;5.70;;;24.40;56.80;;;;;;5093787;28;20173;-60
2021/06/17 06:06:24;;;;;;;5.57;5.18;;;24.40;56.80;;;;;;5094266;28;20285;-60
2021/06/17 06:08:49;;;;;;;5.57;5.18;;;24.40;56.80;;;;;;5093629;28;20519;-60
2021/06/17 06:11:15;;;;;;;5.72;5.32;;;24.40;57.50;;;;;;5075609;28;20185;-60
2021/06/17 06:13:40;;;;;;;6.32;5.82;;;24.40;56.80;;;;;;5093770;28;20255;-60
2021/06/17 06:16:06;;;;;;;5.40;5.00;;;24.40;56.80;;;;;;5093820;28;20193;-60
2021/06/17 06:18:31;;;;;;;5.90;5.40;;;24.40;56.80;;;;;;5093040;28;20247;-60
2021/06/17 06:20:58;;;;;;;5.70;5.30;;;24.40;56.80;;;;;;5093769;28;20169;-60
2021/06/17 06:23:24;;;;;;;5.57;5.18;;;24.40;56.80;;;;;;5093390;28;20697;-60
2021/06/17 06:25:50;;;;;;;6.57;6.07;;;24.50;56.80;;;;;;5093068;28;20201;-60
2021/06/17 06:28:16;;;;;;;5.57;5.18;;;24.50;56.80;;;;;;5093717;28;20234;-60
2021/06/17 06:30:42;;;;;;;5.47;5.07;;;24.50;57.40;;;;;;5092777;28;20234;-60
2021/06/17 06:33:08;;;;;;;5.68;5.28;;;24.50;56.80;;;;;;5093045;28;20182;-60
2021/06/17 06:35:33;;;;;;;6.15;5.75;;;24.50;56.70;;;;;;5093365;28;20190;-60
2021/06/17 06:37:59;;;;;;;5.68;5.28;;;24.50;56.70;;;;;;5093338;28;20169;-61
2021/06/17 06:40:25;;;;;;;5.55;5.15;;;24.50;56.80;;;;;;5093096;28;20206;-60
2021/06/17 06:42:51;;;;;;;6.00;5.60;;;24.50;56.70;;;;;;5093316;28;20660;-60
2021/06/17 06:45:17;;;;;;;6.05;5.65;;;24.50;56.80;;;;;;5093465;28;20182;-60
2021/06/17 06:47:42;;;;;;;5.75;5.35;;;24.50;56.80;;;;;;5092782;28;20214;-60
2021/06/17 06:50:09;;;;;;;6.07;5.68;;;24.50;56.80;;;;;;5093402;28;20185;-59
2021/06/17 06:52:34;;;;;;;6.00;5.50;;;24.60;56.80;;;;;;5092469;28;20176;-60
2021/06/17 06:55:00;;;;;;;5.53;5.13;;;24.50;56.80;;;;;;5093451;28;20182;-60
2021/06/17 06:57:26;;;;;;;5.65;5.28;;;24.50;56.80;;;;;;5093027;28;20632;-60
2021/06/17 06:59:51;;;;;;;5.72;5.32;;;24.60;56.80;;;;;;5092069;28;20174;-64
2021/06/17 07:02:17;;;;;;;5.57;5.18;;;24.60;56.80;;;;;;5093284;28;20249;-65
2021/06/17 07:04:43;;;;;;;5.68;5.32;;;24.60;56.70;;;;;;5092706;28;20178;-65
2021/06/17 07:07:09;;;;;;;5.90;5.50;;;24.70;57.00;;;;;;5092604;28;20220;-64
2021/06/17 07:09:34;;;;;;;5.32;4.93;;;24.70;56.80;;;;;;5092844;28;20254;-65
2021/06/17 07:12:02;;;;;;;5.50;5.05;;;24.70;56.90;;;;;;5093019;28;20174;-64
2021/06/17 07:14:27;;;;;;;5.63;5.20;;;24.60;56.90;;;;;;5092613;28;20169;-64
2021/06/17 07:16:53;;;;;;;5.85;5.45;;;24.70;56.90;;;;;;5092784;28;20185;-63
2021/06/17 07:19:18;;;;;;;6.05;5.55;;;24.70;56.90;;;;;;5092704;28;20181;-63
2021/06/17 07:21:44;;;;;;;5.88;5.43;;;24.70;56.90;;;;;;5091998;28;20174;-64
2021/06/17 07:24:10;;;;;;;5.72;5.30;;;24.80;56.90;;;;;;5092635;28;20495;-63
2021/06/17 07:26:35;;;;;;;6.00;5.60;;;24.70;57.00;;;;;;5092310;28;20205;-64
2021/06/17 07:29:01;;;;;;;6.35;5.75;;;24.70;57.00;;;;;;5092077;28;20257;-64
2021/06/17 07:31:27;;;;;;;6.45;5.88;;;24.70;57.90;;;;;;5092876;28;20174;-65
2021/06/17 07:33:52;;;;;;;5.90;5.30;;;24.80;57.30;;;;;;5092186;28;20173;-65
2021/06/17 07:36:18;;;;;;;6.10;5.68;;;24.70;57.20;;;;;;5092108;28;20173;-70
2021/06/17 07:38:44;;;;;;;7.03;5.50;;;24.80;57.20;;;;;;5092416;28;20243;-67
2021/06/17 07:41:09;;;;;;;6.15;5.60;;;24.80;57.60;;;;;;5092609;28;20185;-66
2021/06/17 07:43:35;;;;;;;6.18;5.18;;;24.80;57.60;;;;;;5092182;28;20169;-66
2021/06/17 07:46:01;;;;;;;6.55;5.90;;;24.80;57.60;;;;;;5092734;28;20209;-65
2021/06/17 07:48:27;;;;;;;5.93;5.38;;;24.90;57.80;;;;;;5092267;28;20268;-63
2021/06/17 07:50:52;;;;;;;6.60;5.90;;;24.90;57.80;;;;;;5091636;28;20588;-65
2021/06/17 07:53:18;;;;;;;6.47;5.90;;;24.90;57.90;;;;;;5092161;28;20177;-65
2021/06/17 07:55:45;;;;;;;6.03;5.53;;;24.90;57.90;;;;;;5091361;28;20701;-64
2021/06/17 07:58:11;;;;;;;6.50;5.90;;;24.90;58.00;;;;;;5092301;28;20185;-65
2021/06/17 08:00:36;;;;;;;5.47;5.03;;;24.90;58.00;;;;;;5091500;28;20616;-64
2021/06/17 08:03:02;;;;;;;6.35;5.75;;;25.00;58.10;;;;;;5091652;28;20180;-61
2021/06/17 08:05:27;;;;;;;7.05;5.60;;;25.00;58.20;;;;;;5073902;28;20169;-61
2021/06/17 08:07:53;;;;;;;7.93;5.93;;;25.00;58.10;;;;;;5091262;28;20282;-65
2021/06/17 08:10:18;;;;;;;7.57;5.15;;;25.00;58.40;;;;;;5091007;28;20661;-65
2021/06/17 08:12:44;;;;;;;5.75;5.22;;;25.10;58.10;;;;;;5091696;28;20209;-64
2021/06/17 08:15:10;;;;;;;6.00;5.07;;;25.10;58.00;;;;;;5091836;28;20170;-65
2021/06/17 08:17:35;;;;;;;5.95;5.32;;;25.10;57.90;;;;;;5090946;28;20166;-65
2021/06/17 08:20:01;;;;;;;6.03;5.53;;;25.10;57.80;;;;;;5091775;28;20177;-65
2021/06/17 08:22:27;;;;;;;5.68;5.05;;;25.10;57.80;;;;;;5091423;28;20174;-64
2021/06/17 08:24:53;;;;;;;5.32;4.82;;;25.10;57.70;;;;;;5091086;28;20181;-64
2021/06/17 08:27:19;;;;;;;6.05;5.55;;;25.20;57.70;;;;;;5091427;28;20232;-64
2021/06/17 08:29:44;;;;;;;5.45;4.95;;;25.10;57.60;;;;;;5090894;28;20217;-65
2021/06/17 08:32:10;;;;;;;5.78;5.13;;;25.10;57.50;;;;;;5091336;28;20181;-64
2021/06/17 08:34:35;;;;;;;5.07;4.75;;;25.20;57.60;;;;;;5091762;28;20190;-69
2021/06/17 08:37:04;;;;;;;7.75;5.55;;;25.20;57.60;;;;;;5091342;28;20216;-61
2021/06/17 08:39:29;;;;;;;5.53;5.03;;;25.20;57.90;;;;;;5091138;28;20185;-61
2021/06/17 08:41:55;;;;;;;6.13;5.60;;;25.30;58.10;;;;;;5091507;28;20169;-61
2021/06/17 08:44:21;;;;;;;6.13;5.45;;;25.30;58.00;;;;;;5091087;28;20186;-61
2021/06/17 08:46:46;;;;;;;5.65;5.05;;;25.40;58.00;;;;;;5091024;28;20639;-60
2021/06/17 08:49:15;;;;;;;5.97;5.50;;;25.40;57.90;;;;;;5092183;28;20177;-60
2021/06/17 08:51:40;;;;;;;6.63;5.63;;;25.40;58.00;;;;;;5091780;28;20202;-61
2021/06/17 08:54:06;;;;;;;6.10;5.50;;;25.40;58.00;;;;;;5073881;28;20544;-60
2021/06/17 08:56:32;;;;;;;6.32;5.53;;;25.40;58.10;;;;;;5091849;28;20178;-60
2021/06/17 08:58:58;;;;;;;5.47;4.93;;;25.40;58.20;;;;;;5091923;28;20257;-60
2021/06/17 09:01:24;;;;;;;6.55;5.85;;;25.40;58.20;;;;;;5092080;28;20166;-60
2021/06/17 09:03:49;;;;;;;7.85;5.95;;;25.40;58.20;;;;;;5091515;28;20170;-61
2021/06/17 09:06:18;;;;;;;6.63;5.28;;;25.40;58.20;;;;;;5091631;28;20201;-61
2021/06/17 09:08:58;;;;;;;5.25;4.75;;;25.40;58.20;;;;;;5091846;28;20170;-60
2021/06/17 09:11:24;;;;;;;5.78;5.28;;;25.40;58.20;;;;;;5075754;28;20260;-59
2021/06/17 09:13:51;;;;;;;6.07;5.47;;;25.40;58.20;;;;;;5072903;28;20225;-60
2021/06/17 09:16:26;;;;;;;5.65;5.10;;;25.40;58.30;;;;;;5091568;28;20650;-61
2021/06/17 09:18:52;;;;;;;5.45;4.93;;;25.40;58.20;;;;;;5091324;28;20649;-60
2021/06/17 09:21:17;;;;;;;5.25;4.72;;;25.40;58.30;;;;;;5091767;28;20174;-60
2021/06/17 09:23:44;;;;;;;6.63;4.72;;;25.40;58.20;;;;;;5095449;28;20174;-60
2021/06/17 09:26:16;;;;;;;8.50;5.75;;;25.40;58.20;;;;;;5095241;28;20201;-60
2021/06/17 09:28:51;;;;;;;6.05;5.10;;;25.40;58.20;;;;;;5094332;28;20192;-60
2021/06/17 09:31:21;;;;;;;5.85;5.25;;;25.40;58.20;;;;;;5095252;28;20213;-65
2021/06/17 09:33:47;;;;;;;6.07;5.25;;;25.40;58.20;;;;;;5094694;28;20631;-65
2021/06/17 09:36:13;;;;;;;5.47;5.03;;;25.40;58.10;;;;;;5093714;28;20280;-64
2021/06/17 09:38:43;;;;;;;5.32;4.82;;;25.40;58.00;;;;;;5094912;28;20235;-65
2021/06/17 09:41:08;;;;;;;5.82;5.07;;;25.40;58.00;;;;;;5095242;28;20184;-65
2021/06/17 09:43:38;;;;;;;7.82;5.03;;;25.40;58.00;;;;;;5075928;28;20514;-65
2021/06/17 09:46:05;;;;;;;5.82;5.20;;;25.40;58.00;;;;;;5077411;28;20341;-64
2021/06/17 09:48:34;;;;;;;5.63;4.88;;;25.40;57.90;;;;;;5094235;28;20212;-64
2021/06/17 09:51:20;;;;;;;5.63;5.13;;;25.40;57.90;;;;;;5095155;28;20185;-64
2021/06/17 09:53:46;;;;;;;5.60;5.07;;;25.40;57.80;;;;;;5059040;28;20609;-64
2021/06/17 09:56:14;;;;;;;5.22;4.70;;;25.40;57.70;;;;;;5091452;28;20180;-64
2021/06/17 09:58:42;;;;;;;5.88;4.95;;;25.40;58.40;;;;;;5094744;28;20178;-64
2021/06/17 10:01:13;;;;;;;5.55;5.10;;;25.40;57.70;;;;;;5093431;28;20623;-64
2021/06/17 10:03:41;;;;;;;6.40;5.15;;;25.40;57.70;;;;;;5092934;28;20189;-64
2021/06/17 10:06:19;;;;;;;7.30;4.57;;;25.50;57.70;;;;;;5075926;28;20201;-64
2021/06/17 10:08:44;;;;;;;6.20;5.43;;;25.50;57.60;;;;;;5092121;28;20185;-64
2021/06/17 10:11:10;;;;;;;5.75;4.82;;;25.50;57.60;;;;;;5094215;28;20176;-65
2021/06/17 10:13:37;;;;;;;6.55;5.72;;;25.50;57.60;;;;;;5075285;28;20261;-64
2021/06/17 10:16:03;;;;;;;6.32;5.03;;;25.50;57.60;;;;;;5075349;28;20193;-62
2021/06/17 10:18:29;;;;;;;5.30;4.90;;;25.50;57.60;;;;;;5093477;28;20261;-64
2021/06/17 10:20:54;;;;;;;6.00;5.28;;;25.60;57.60;;;;;;5075476;28;20257;-64
2021/06/17 10:23:20;;;;;;;6.20;5.45;;;25.60;57.60;;;;;;5093618;28;20186;-63
2021/06/17 10:25:46;;;;;;;5.50;4.90;;;25.60;57.60;;;;;;5092065;28;20488;-63
2021/06/17 10:28:12;;;;;;;5.55;5.05;;;25.60;57.60;;;;;;5075221;28;20174;-65
2021/06/17 10:30:48;;;;;;;5.15;4.60;;;25.60;57.60;;;;;;5087130;28;20218;-64
2021/06/17 10:33:34;;;;;;;5.45;4.93;;;25.60;57.50;;;;;;5084059;28;20603;-64
2021/06/17 10:36:24;;;;;;;6.18;5.57;;;25.70;57.60;;;;;;5090611;28;20182;-65
2021/06/17 10:39:05;;;;;;;5.35;4.85;;;25.70;57.50;;;;;;5091566;28;20577;-67
2021/06/17 10:42:10;;;;;;;5.40;4.90;;;25.70;57.50;;;;;;5093355;28;20264;-66
2021/06/17 10:44:51;;;;;;;5.50;5.03;;;25.70;57.50;;;;;;5030591;28;20184;-65
2021/06/17 10:47:38;;;;;;;5.45;4.97;;;25.70;57.50;;;;;;5031519;28;20294;-65
2021/06/17 10:50:07;;;;;;;5.57;5.05;;;25.70;57.50;;;;;;5076093;28;20177;-65
2021/06/17 10:52:33;;;;;;;6.85;5.35;;;25.70;57.40;;;;;;5092865;28;20195;-64
2021/06/17 10:55:08;;;;;;;7.07;5.13;;;25.70;57.40;;;;;;5093921;28;20174;-65
2021/06/17 11:00:24;;;;;;;5.38;4.82;;;25.70;58.00;;;;;;5093032;28;20174;-65
2021/06/17 11:02:57;;;;;;;7.35;5.60;;;25.70;57.60;;;;;;5092899;28;20188;-65
2021/06/17 11:05:28;;;;;;;7.03;5.30;;;25.70;57.40;;;;;;5092691;28;20205;-65
2021/06/17 11:08:16;;;;;;;8.38;5.10;;;25.70;57.40;;;;;;5092607;28;20205;-65
2021/06/17 11:11:02;;;;;;;7.68;5.75;;;25.80;57.50;;;;;;5092726;28;20169;-65
2021/06/17 11:14:02;;;;;;;9.10;5.53;;;25.80;57.50;;;;;;5092851;28;20177;-65
2021/06/17 11:16:33;;;;;;;6.95;5.38;;;25.80;57.40;;;;;;5066984;28;20186;-64
2021/06/17 11:19:16;;;;;;;7.85;6.15;;;25.90;57.50;;;;;;5092940;28;20511;-64
2021/06/17 11:21:43;;;;;;;5.95;5.30;;;25.90;57.50;;;;;;5092026;28;20177;-65
2021/06/17 11:24:09;;;;;;;7.28;5.72;;;25.90;57.40;;;;;;5092930;28;20196;-65
2021/06/17 11:26:47;;;;;;;9.15;5.40;;;26.00;57.50;;;;;;5092561;28;20208;-65
2021/06/17 11:29:18;;;;;;;8.93;5.97;;;25.90;57.50;;;;;;5092947;28;20192;-67
2021/06/17 11:31:51;;;;;;;6.63;5.47;;;26.00;57.60;;;;;;5092625;28;20211;-67
2021/06/17 11:34:29;;;;;;;9.43;6.05;;;25.90;57.50;;;;;;5092472;28;20170;-62
2021/06/17 11:36:56;;;;;;;7.75;5.40;;;26.00;57.50;;;;;;5092740;28;20199;-61
2021/06/17 11:39:22;;;;;;;8.25;5.60;;;26.00;57.40;;;;;;5091560;28;20189;-60
2021/06/17 11:41:48;;;;;;;6.88;5.50;;;26.10;57.50;;;;;;5091790;28;20170;-62
2021/06/17 11:44:16;;;;;;;10.93;6.45;;;26.10;57.40;;;;;;5092133;28;20173;-61
2021/06/17 11:46:42;;;;;;;7.32;5.65;;;26.10;57.40;;;;;;5092213;28;20227;-66
2021/06/17 11:49:09;;;;;;;9.65;5.80;;;26.10;57.40;;;;;;5092422;28;20176;-66
2021/06/17 11:51:53;;;;;;;11.85;6.28;;;26.10;57.40;;;;;;5092444;28;20181;-64
2021/06/17 11:54:21;;;;;;;10.82;5.90;;;26.10;57.70;;;;;;5092482;28;20180;-66
2021/06/17 11:56:48;;;;;;;16.15;6.15;;;26.10;57.70;;;;;;5091742;28;20646;-65
2021/06/17 11:59:15;;;;;;;10.20;5.35;;;26.10;57.70;;;;;;5092366;28;20581;-65
2021/06/17 12:02:00;;;;;;;9.43;5.72;;;26.20;57.70;;;;;;5092503;28;20227;-67
2021/06/17 12:04:38;;;;;;;10.23;5.47;;;26.20;57.70;;;;;;5077587;28;20204;-66
2021/06/17 12:07:04;;;;;;;11.20;6.20;;;26.20;57.60;;;;;;5092193;28;20644;-66
2021/06/17 12:09:30;;;;;;;7.43;5.40;;;26.20;57.60;;;;;;5091709;28;20170;-66
2021/06/17 12:12:24;;;;;;;10.68;5.70;;;26.30;57.50;;;;;;5092493;28;20180;-66
2021/06/17 12:14:54;;;;;;;8.40;5.63;;;26.30;57.50;;;;;;5092149;28;20182;-63
2021/06/17 12:17:32;;;;;;;10.88;5.35;;;26.30;57.30;;;;;;5091038;28;20242;-66
2021/06/17 12:20:44;;;;;;;10.00;5.68;;;26.30;57.40;;;;;;5092544;28;20177;-65
2021/06/17 12:23:20;;;;;;;7.18;5.53;;;26.20;57.50;;;;;;5085632;28;20253;-65
2021/06/17 12:26:00;;;;;;;5.82;5.22;;;26.20;57.60;;;;;;5091931;28;20635;-65
2021/06/17 12:28:26;;;;;;;6.40;5.28;;;26.10;57.60;;;;;;5091850;28;20181;-65
2021/06/17 12:30:52;;;;;;;8.80;5.22;;;26.10;57.70;;;;;;5091231;28;20655;-63
2021/06/17 12:33:31;;;;;;;7.30;5.43;;;26.10;57.70;;;;;;5092517;28;20256;-66
2021/06/17 12:36:12;;;;;;;6.95;5.13;;;26.10;57.70;;;;;;5092144;28;20181;-65
2021/06/17 12:38:39;;;;;;;7.30;5.43;;;26.10;57.70;;;;;;5091426;28;20174;-65
2021/06/17 12:41:18;;;;;;;6.40;5.22;;;26.10;57.60;;;;;;5091817;28;20552;-66
2021/06/17 12:43:45;;;;;;;7.57;5.43;;;26.10;57.60;;;;;;5091940;28;20534;-65
2021/06/17 12:46:11;;;;;;;7.85;5.32;;;26.10;57.60;;;;;;5091425;28;20240;-66
2021/06/17 12:54:22;;;;;;;6.18;4.70;;;26.10;57.60;;;;;;5092117;28;20208;-65
2021/06/17 12:57:00;;;;;;;7.40;5.45;;;26.10;57.60;;;;;;5094376;28;20641;-65
2021/06/17 12:59:46;;;;;;;7.55;5.68;;;26.10;57.60;;;;;;5094906;28;20181;-64
2021/06/17 13:02:31;;;;;;;6.05;5.03;;;26.10;57.50;;;;;;5093960;28;20619;-64
2021/06/17 13:05:00;;;;;;;6.68;5.53;;;26.10;57.50;;;;;;5077908;28;20280;-64
2021/06/17 13:07:26;;;;;;;5.28;4.78;;;26.10;57.50;;;;;;5095332;28;20525;-64